Time;durP1;ratioP1;P1;durP2;ratioP2;P2;SDS_P1;SDS_P2;PMS_P1;PMS_P2;Temp;Humidity;BMP_temperature;BMP_pressure;BME280_temperature;BME280_humidity;BME280_pressure;Samples;Min_cycle;Max_cycle;Signal;HPM_P1;HPM_P2
2022/04/24 00:01:43;;;;;;;9.20;5.00;;;;;;;25.83;30.51;99788.41;4938036;29;20035;-48
2022/04/24 00:04:11;;;;;;;10.15;5.03;;;;;;;25.82;30.50;99795.41;4955020;29;20035;-48
2022/04/24 00:06:41;;;;;;;9.95;4.93;;;;;;;25.76;30.60;99791.09;4954502;29;20027;-48
2022/04/24 00:09:10;;;;;;;10.85;5.13;;;;;;;25.81;30.66;99793.69;4954825;29;20031;-49
2022/04/24 00:11:38;;;;;;;10.02;5.55;;;;;;;25.82;30.80;99792.78;4954604;29;20046;-51
2022/04/24 00:14:10;;;;;;;10.95;5.32;;;;;;;25.81;30.78;99791.06;4955203;29;20087;-47
2022/04/24 00:16:39;;;;;;;9.48;5.30;;;;;;;25.78;30.49;99797.19;4954762;29;20388;-45
2022/04/24 00:19:07;;;;;;;8.30;5.28;;;;;;;25.78;30.55;99796.34;4954783;28;20038;-50
2022/04/24 00:21:36;;;;;;;10.45;5.82;;;;;;;25.72;30.60;99812.19;4958568;29;20042;-52
2022/04/24 00:24:04;;;;;;;9.85;5.13;;;;;;;25.74;30.79;99797.28;4958220;29;20036;-50
2022/04/24 00:26:33;;;;;;;9.32;5.55;;;;;;;25.72;30.67;99802.56;4958627;29;20036;-54
2022/04/24 00:29:02;;;;;;;8.50;5.85;;;;;;;25.75;30.87;99801.63;4958407;29;20051;-53
2022/04/24 00:31:30;;;;;;;9.85;5.32;;;;;;;25.77;30.48;99802.50;4958036;29;20099;-51
2022/04/24 00:33:58;;;;;;;6.70;4.60;;;;;;;25.71;30.78;99799.94;4958403;29;20027;-49
2022/04/24 00:36:27;;;;;;;10.80;5.90;;;;;;;25.73;30.61;99804.25;4958120;29;20093;-52
2022/04/24 00:38:55;;;;;;;11.25;5.05;;;;;;;25.72;30.80;99802.56;4958448;29;20031;-48
2022/04/24 00:41:23;;;;;;;8.70;5.40;;;;;;;25.71;31.01;99798.19;4958213;29;20393;-52
2022/04/24 00:43:55;;;;;;;8.02;4.82;;;;;;;25.67;30.96;99801.72;4957943;29;20031;-51
2022/04/24 00:46:43;;;;;;;9.02;5.35;;;;;;;25.67;30.92;99808.72;4958199;29;20057;-47
2022/04/24 00:49:13;;;;;;;8.90;5.57;;;;;;;25.67;30.94;99803.47;4941254;29;20082;-51
2022/04/24 00:51:43;;;;;;;7.68;4.93;;;;;;;25.76;30.81;99808.63;4940615;29;20098;-49
2022/04/24 00:54:12;;;;;;;9.98;5.15;;;;;;;25.75;30.79;99810.38;4958316;29;20107;-49
2022/04/24 00:56:42;;;;;;;6.70;4.65;;;;;;;25.69;30.88;99807.84;4958077;29;20500;-52
2022/04/24 00:59:12;;;;;;;8.95;5.50;;;;;;;25.70;30.89;99816.56;4957610;29;20089;-51
2022/04/24 01:01:41;;;;;;;9.05;5.40;;;;;;;25.70;30.59;99816.56;4957688;29;20465;-47
2022/04/24 01:04:11;;;;;;;9.48;5.32;;;;;;;25.67;30.55;99813.97;4957934;29;20035;-47
2022/04/24 01:06:42;;;;;;;9.30;5.18;;;;;;;25.71;30.59;99818.31;4940493;29;20038;-45
2022/04/24 01:09:14;;;;;;;8.35;4.60;;;;;;;25.72;30.87;99820.06;4957799;29;20031;-50
2022/04/24 01:11:43;;;;;;;9.40;4.75;;;;;;;25.70;30.65;99827.09;4940556;29;20035;-48
2022/04/24 01:14:12;;;;;;;9.95;4.75;;;;;;;25.77;30.82;99828.75;4957383;29;20027;-51
2022/04/24 01:16:41;;;;;;;8.73;5.07;;;;;;;25.66;30.58;99821.00;4957421;29;20136;-49
2022/04/24 01:19:09;;;;;;;6.25;4.32;;;;;;;25.72;30.82;99833.19;4957724;29;20043;-48
2022/04/24 01:21:39;;;;;;;7.85;5.30;;;;;;;25.69;30.95;99833.22;4957630;29;20477;-48
2022/04/24 01:24:09;;;;;;;7.78;4.85;;;;;;;25.71;30.92;99834.97;4940347;29;20031;-48
2022/04/24 01:26:37;;;;;;;11.85;4.90;;;;;;;25.70;31.04;99829.72;4957361;29;20035;-51
2022/04/24 01:29:06;;;;;;;9.52;4.70;;;;;;;25.69;30.91;99831.47;4957471;29;20054;-50
2022/04/24 01:31:35;;;;;;;8.60;5.18;;;;;;;25.74;30.94;99834.03;4955936;28;20123;-51
2022/04/24 01:34:03;;;;;;;7.43;4.80;;;;;;;25.72;30.64;99828.81;4957525;29;20038;-49
2022/04/24 01:36:31;;;;;;;8.13;4.53;;;;;;;25.71;30.72;99831.44;4957175;29;20047;-48
2022/04/24 01:39:00;;;;;;;8.43;4.88;;;;;;;25.71;30.48;99840.22;4957303;29;20470;-49
2022/04/24 01:41:28;;;;;;;7.50;4.63;;;;;;;25.70;30.58;99832.34;4957048;29;20035;-50
2022/04/24 01:43:57;;;;;;;7.43;4.43;;;;;;;25.73;30.42;99848.06;4957053;29;20050;-51
2022/04/24 01:46:25;;;;;;;7.28;4.90;;;;;;;25.67;30.85;99848.13;4939953;29;20027;-50
2022/04/24 01:48:54;;;;;;;8.25;4.53;;;;;;;25.69;30.78;99842.00;4956451;29;20034;-50
2022/04/24 01:51:23;;;;;;;8.20;4.45;;;;;;;25.72;30.75;99841.06;4956605;29;20045;-51
2022/04/24 01:53:51;;;;;;;7.30;4.57;;;;;;;25.73;30.37;99834.94;4957013;29;20115;-50
2022/04/24 01:56:19;;;;;;;7.53;4.90;;;;;;;25.76;30.58;99840.16;4956581;29;20039;-50
2022/04/24 01:58:48;;;;;;;8.60;4.60;;;;;;;25.69;30.57;99839.38;4956555;29;20032;-51
2022/04/24 02:01:17;;;;;;;8.27;4.53;;;;;;;25.70;30.50;99845.47;4956386;29;20114;-48
2022/04/24 02:03:45;;;;;;;7.00;3.88;;;;;;;25.68;30.85;99848.13;4956689;29;20113;-49
2022/04/24 02:06:14;;;;;;;8.13;4.32;;;;;;;25.72;30.77;99848.94;4956439;29;20031;-49
2022/04/24 02:08:42;;;;;;;7.47;4.38;;;;;;;25.73;30.58;99851.53;4956774;29;20051;-47
2022/04/24 02:11:11;;;;;;;6.85;4.88;;;;;;;25.69;30.65;99848.97;4955899;29;20043;-52
2022/04/24 02:13:39;;;;;;;8.00;4.28;;;;;;;25.66;30.66;99843.75;4956501;29;20042;-50
2022/04/24 02:16:07;;;;;;;6.05;4.03;;;;;;;25.67;30.90;99850.75;4956454;29;20027;-50
2022/04/24 02:18:36;;;;;;;8.18;5.00;;;;;;;25.74;30.63;99848.03;4957395;29;20039;-50
2022/04/24 02:21:04;;;;;;;6.35;4.10;;;;;;;25.70;30.80;99842.84;4956696;29;20050;-48
2022/04/24 02:23:32;;;;;;;8.32;4.50;;;;;;;25.67;30.76;99856.00;4956570;29;20031;-51
2022/04/24 02:26:01;;;;;;;8.73;5.50;;;;;;;25.61;30.80;99851.69;4956194;29;20114;-54
2022/04/24 02:28:30;;;;;;;9.27;5.00;;;;;;;25.60;30.78;99852.59;4956117;29;20500;-51
2022/04/24 02:30:58;;;;;;;7.15;4.47;;;;;;;25.66;30.60;99854.25;4956090;29;20035;-53
2022/04/24 02:33:27;;;;;;;8.15;5.07;;;;;;;25.66;30.79;99855.16;4956191;29;20378;-49
2022/04/24 02:35:55;;;;;;;8.25;4.25;;;;;;;25.63;30.92;99853.44;4956082;29;20489;-51
2022/04/24 02:38:24;;;;;;;6.57;4.55;;;;;;;25.69;30.52;99854.22;4955808;29;20509;-51
2022/04/24 02:40:54;;;;;;;6.50;4.63;;;;;;;25.66;30.70;99856.88;4956184;29;20553;-48
2022/04/24 02:43:25;;;;;;;8.60;5.10;;;;;;;25.58;30.79;99857.88;4955703;28;20035;-51
2022/04/24 02:45:53;;;;;;;7.55;4.35;;;;;;;25.63;30.40;99860.44;4955963;29;20041;-52
2022/04/24 02:48:22;;;;;;;8.50;4.82;;;;;;;25.59;30.81;99856.97;4955881;29;20104;-51
2022/04/24 02:50:50;;;;;;;9.52;5.05;;;;;;;25.62;31.00;99863.94;4955862;29;20433;-48
2022/04/24 02:53:21;;;;;;;10.88;5.13;;;;;;;25.65;30.53;99863.91;4955539;29;20024;-51
2022/04/24 02:55:50;;;;;;;9.13;4.88;;;;;;;25.57;30.67;99861.38;4955955;29;20031;-54
2022/04/24 02:58:20;;;;;;;7.70;5.40;;;;;;;25.60;30.98;99861.34;4955544;29;20094;-53
2022/04/24 03:00:54;;;;;;;9.73;5.55;;;;;;;25.59;30.94;99866.59;4938422;29;20027;-52
2022/04/24 03:03:23;;;;;;;8.70;4.65;;;;;;;25.67;30.51;99870.03;4955729;29;20027;-53
2022/04/24 03:05:51;;;;;;;9.30;5.05;;;;;;;25.60;30.63;99873.59;4955976;29;20119;-51
2022/04/24 03:08:23;;;;;;;8.65;4.75;;;;;;;25.58;30.96;99871.00;4955585;29;20499;-51
2022/04/24 03:10:51;;;;;;;8.60;5.10;;;;;;;25.56;30.90;99875.38;4955915;29;20039;-51
2022/04/24 03:13:20;;;;;;;6.70;4.68;;;;;;;25.54;30.88;99871.06;4955662;29;20024;-53
2022/04/24 03:15:49;;;;;;;9.30;5.03;;;;;;;25.54;30.92;99876.31;4955690;29;20026;-48
2022/04/24 03:18:18;;;;;;;7.28;4.95;;;;;;;25.50;31.09;99879.84;4955515;29;20034;-50
2022/04/24 03:20:46;;;;;;;8.35;4.90;;;;;;;25.52;31.03;99875.44;4955688;29;20050;-48
2022/04/24 03:23:15;;;;;;;10.20;5.07;;;;;;;25.46;31.09;99876.38;4955495;29;20023;-53
2022/04/24 03:25:43;;;;;;;7.10;5.15;;;;;;;25.50;30.97;99879.84;4938309;29;20461;-51
2022/04/24 03:28:12;;;;;;;9.20;4.97;;;;;;;25.57;31.00;99873.63;4955203;29;20035;-53
2022/04/24 03:30:40;;;;;;;6.07;4.22;;;;;;;25.55;31.10;99884.16;4955242;29;20027;-54
2022/04/24 03:33:09;;;;;;;7.72;4.93;;;;;;;25.56;30.79;99883.28;4955290;29;20067;-53
2022/04/24 03:35:38;;;;;;;7.60;4.32;;;;;;;25.55;30.72;99886.78;4955257;29;20027;-50
2022/04/24 03:38:07;;;;;;;10.60;4.47;;;;;;;25.58;30.81;99889.38;4954907;29;20043;-48
2022/04/24 03:40:37;;;;;;;6.90;4.43;;;;;;;25.50;31.23;99885.09;4938128;29;20473;-52
2022/04/24 03:43:05;;;;;;;8.40;4.30;;;;;;;25.51;30.73;99892.09;4954904;29;20027;-51
2022/04/24 03:45:34;;;;;;;7.90;4.15;;;;;;;25.52;30.98;99891.19;4955324;29;20127;-51
2022/04/24 03:48:03;;;;;;;7.00;4.05;;;;;;;25.49;31.07;99897.34;4955336;29;20055;-52
2022/04/24 03:50:31;;;;;;;10.52;4.32;;;;;;;25.53;31.08;99901.69;4954981;29;20039;-53
2022/04/24 03:53:00;;;;;;;8.55;4.90;;;;;;;25.56;31.02;99904.28;4954969;29;20031;-52
2022/04/24 03:55:29;;;;;;;5.50;4.15;;;;;;;25.55;30.68;99905.16;4956847;28;20026;-51
2022/04/24 03:57:57;;;;;;;6.97;4.47;;;;;;;25.58;31.00;99912.13;4959103;29;20429;-52
2022/04/24 04:00:26;;;;;;;6.97;4.40;;;;;;;25.55;30.90;99910.41;4959229;29;20023;-52
2022/04/24 04:02:55;;;;;;;8.35;4.53;;;;;;;25.53;30.88;99911.31;4959010;29;20031;-49
2022/04/24 04:05:23;;;;;;;7.45;4.50;;;;;;;25.52;31.01;99913.06;4958704;29;20031;-51
2022/04/24 04:07:52;;;;;;;7.70;4.82;;;;;;;25.47;30.92;99915.75;4958786;29;20118;-46
2022/04/24 04:10:22;;;;;;;8.23;4.78;;;;;;;25.47;31.18;99920.13;4958526;29;20090;-49
2022/04/24 04:12:51;;;;;;;7.38;5.53;;;;;;;25.46;30.92;99918.41;4958805;29;20026;-50
2022/04/24 04:15:19;;;;;;;8.85;4.65;;;;;;;25.51;31.20;99920.97;4941461;29;20061;-47
2022/04/24 04:17:48;;;;;;;7.05;4.57;;;;;;;25.53;30.83;99924.47;4959091;29;20030;-49
2022/04/24 04:20:17;;;;;;;6.13;3.97;;;;;;;25.57;30.97;99926.13;4958794;29;20114;-50
2022/04/24 04:22:48;;;;;;;6.53;4.43;;;;;;;25.58;30.98;99920.00;4958732;29;20392;-50
2022/04/24 04:25:17;;;;;;;8.95;4.82;;;;;;;25.59;30.91;99927.88;4958679;29;20038;-51
2022/04/24 04:27:45;;;;;;;6.40;4.63;;;;;;;25.59;30.66;99932.25;4958934;29;20500;-49
2022/04/24 04:30:14;;;;;;;7.05;4.25;;;;;;;25.50;30.78;99935.84;4958391;29;20071;-48
2022/04/24 04:32:42;;;;;;;8.32;5.18;;;;;;;25.47;31.25;99936.75;4941442;29;20491;-51
2022/04/24 04:35:10;;;;;;;6.45;4.32;;;;;;;25.46;30.85;99935.00;4958345;29;20354;-51
2022/04/24 04:37:39;;;;;;;7.10;4.40;;;;;;;25.48;30.68;99949.00;4958352;29;20130;-51
2022/04/24 04:40:10;;;;;;;7.13;3.95;;;;;;;25.51;30.85;99953.34;4958062;29;20039;-52
2022/04/24 04:42:38;;;;;;;8.07;4.68;;;;;;;25.47;30.64;99963.00;4958198;29;20462;-51
2022/04/24 04:45:07;;;;;;;6.50;4.25;;;;;;;25.48;30.80;99964.75;4958490;29;20478;-47
2022/04/24 04:47:36;;;;;;;5.95;4.03;;;;;;;25.48;31.11;99966.53;4958302;29;20031;-48
2022/04/24 04:50:05;;;;;;;6.88;4.30;;;;;;;25.58;30.63;99969.91;4957803;29;20031;-51
2022/04/24 04:52:34;;;;;;;5.53;3.72;;;;;;;25.71;30.41;99973.28;4957981;29;20032;-49
2022/04/24 04:55:04;;;;;;;7.40;4.90;;;;;;;25.64;30.71;99980.38;4940733;29;20405;-51
2022/04/24 04:57:32;;;;;;;6.85;4.55;;;;;;;25.61;30.76;99980.38;4957691;29;20039;-52
2022/04/24 05:00:01;;;;;;;6.60;4.32;;;;;;;25.58;31.00;99989.19;4957963;29;20039;-50
2022/04/24 05:02:30;;;;;;;6.55;4.03;;;;;;;25.55;31.00;99983.94;4940740;29;20031;-50
2022/04/24 05:05:00;;;;;;;7.47;4.55;;;;;;;25.49;31.04;99983.97;4957798;29;20031;-46
2022/04/24 05:07:28;;;;;;;7.88;4.40;;;;;;;25.48;30.74;99993.63;4957573;28;20042;-47
2022/04/24 05:09:57;;;;;;;6.43;4.35;;;;;;;25.47;30.71;100001.53;4957637;29;20023;-50
2022/04/24 05:12:30;;;;;;;7.03;4.28;;;;;;;25.52;30.69;100004.13;4957510;29;20501;-47
2022/04/24 05:15:03;;;;;;;6.72;4.63;;;;;;;25.45;31.11;100001.53;4957794;29;20038;-50
2022/04/24 05:17:34;;;;;;;7.60;4.57;;;;;;;25.42;30.99;100005.94;4957706;29;20027;-48
2022/04/24 05:20:04;;;;;;;6.07;3.90;;;;;;;25.42;30.81;100013.81;4957428;29;20038;-49
2022/04/24 05:22:32;;;;;;;5.75;4.00;;;;;;;25.46;30.77;100018.16;4957444;29;20105;-49
2022/04/24 05:25:01;;;;;;;5.88;3.85;;;;;;;25.48;30.87;100027.78;4957350;29;20127;-51
2022/04/24 05:27:29;;;;;;;6.70;4.45;;;;;;;25.49;31.04;100031.25;4957186;29;20054;-49
2022/04/24 05:29:58;;;;;;;6.47;4.15;;;;;;;25.55;30.71;100030.34;4957057;29;20023;-51
2022/04/24 05:32:27;;;;;;;6.43;4.30;;;;;;;25.56;30.62;100045.22;4957313;29;20497;-47
2022/04/24 05:34:55;;;;;;;5.68;3.97;;;;;;;25.53;30.58;100042.63;4957165;29;20441;-49
2022/04/24 05:37:24;;;;;;;6.70;4.32;;;;;;;25.54;30.84;100045.22;4956882;29;20047;-51
2022/04/24 05:39:53;;;;;;;6.05;4.05;;;;;;;25.50;30.66;100058.41;4957312;29;20032;-50
2022/04/24 05:42:22;;;;;;;6.15;3.85;;;;;;;25.45;31.12;100061.06;4956980;29;20035;-51
2022/04/24 05:44:50;;;;;;;5.72;4.22;;;;;;;25.44;30.59;100060.19;4957248;29;20054;-45
2022/04/24 05:47:19;;;;;;;5.45;4.30;;;;;;;25.50;30.65;100061.88;4957503;29;20090;-48
2022/04/24 05:49:47;;;;;;;7.63;4.47;;;;;;;25.53;30.75;100068.88;4956703;29;20477;-50
2022/04/24 05:52:16;;;;;;;7.55;4.18;;;;;;;25.51;30.80;100071.50;4957293;29;20031;-45
2022/04/24 05:54:44;;;;;;;5.15;3.92;;;;;;;25.43;30.90;100081.22;4957201;29;20027;-47
2022/04/24 05:57:13;;;;;;;7.90;4.07;;;;;;;25.46;30.84;100087.28;4956736;29;20036;-49
2022/04/24 05:59:42;;;;;;;7.60;4.28;;;;;;;25.47;30.95;100085.56;4957399;29;20035;-51
2022/04/24 06:02:11;;;;;;;6.72;4.28;;;;;;;25.47;30.50;100089.03;4956734;29;20112;-52
2022/04/24 06:04:39;;;;;;;6.78;4.32;;;;;;;25.44;30.88;100091.69;4956798;29;20038;-50
2022/04/24 06:07:09;;;;;;;5.65;3.90;;;;;;;25.44;30.57;100096.94;4939961;29;20114;-50
2022/04/24 06:09:41;;;;;;;5.90;4.15;;;;;;;25.50;30.53;100098.66;4956904;29;20106;-48
2022/04/24 06:12:10;;;;;;;4.70;3.30;;;;;;;25.51;30.55;100099.53;4956439;29;20178;-51
2022/04/24 06:14:39;;;;;;;6.65;4.28;;;;;;;25.51;30.71;100091.66;4956548;29;20038;-54
2022/04/24 06:17:07;;;;;;;6.78;3.97;;;;;;;25.58;30.46;100098.59;4955680;28;20031;-51
2022/04/24 06:19:36;;;;;;;6.32;4.25;;;;;;;25.54;30.43;100103.00;4956142;29;20470;-51
2022/04/24 06:22:05;;;;;;;5.80;3.97;;;;;;;25.51;30.60;100104.78;4956215;29;20442;-51
2022/04/24 06:24:33;;;;;;;6.13;3.90;;;;;;;25.47;30.66;100107.44;4956527;29;20058;-53
2022/04/24 06:27:02;;;;;;;5.47;3.90;;;;;;;25.48;30.64;100113.56;4956537;29;20481;-49
2022/04/24 06:29:31;;;;;;;7.03;4.00;;;;;;;25.54;30.44;100108.25;4956232;29;20046;-51
2022/04/24 06:32:00;;;;;;;5.60;4.15;;;;;;;25.44;31.08;100110.06;4955996;29;20042;-48
2022/04/24 06:34:29;;;;;;;7.78;4.90;;;;;;;25.42;30.83;100114.44;4956296;29;20027;-47
2022/04/24 06:36:58;;;;;;;6.38;4.35;;;;;;;25.41;30.93;100111.81;4939278;29;20489;-51
2022/04/24 06:39:26;;;;;;;7.85;4.63;;;;;;;25.41;30.77;100122.31;4956004;29;20046;-51
2022/04/24 06:41:55;;;;;;;8.75;4.82;;;;;;;25.40;30.81;100126.69;4956311;29;20029;-50
2022/04/24 06:44:24;;;;;;;4.82;3.60;;;;;;;25.48;31.01;100124.94;4955525;29;20035;-50
2022/04/24 06:46:52;;;;;;;7.10;4.22;;;;;;;25.46;31.01;100116.19;4956294;29;20096;-49
2022/04/24 06:49:21;;;;;;;6.82;4.78;;;;;;;25.30;30.79;100083.88;4955867;29;20035;-46
2022/04/24 06:51:49;;;;;;;5.68;4.30;;;;;;;25.47;30.91;100111.81;4955582;29;20159;-48
2022/04/24 06:54:18;;;;;;;7.15;4.07;;;;;;;25.54;30.67;100123.16;4956047;29;20498;-48
2022/04/24 06:56:46;;;;;;;6.60;3.85;;;;;;;25.57;30.83;100121.38;4955665;29;20039;-51
2022/04/24 06:59:15;;;;;;;6.28;4.10;;;;;;;25.58;30.72;100116.97;4955637;29;20483;-48
2022/04/24 07:01:44;;;;;;;7.53;4.20;;;;;;;25.61;30.77;100111.69;4955438;29;20114;-49
2022/04/24 07:04:12;;;;;;;7.40;4.65;;;;;;;25.62;30.56;100116.06;4955495;29;20027;-48
2022/04/24 07:06:41;;;;;;;6.32;4.25;;;;;;;25.60;30.80;100113.47;4955063;29;20041;-51
2022/04/24 07:09:10;;;;;;;6.45;3.92;;;;;;;25.62;31.16;100124.84;4955725;29;20062;-50
2022/04/24 07:11:40;;;;;;;5.53;3.97;;;;;;;25.62;31.33;100124.84;4938585;29;20027;-51
2022/04/24 07:14:09;;;;;;;5.25;3.90;;;;;;;25.61;31.33;100120.47;4955822;29;20131;-49
2022/04/24 07:16:37;;;;;;;6.85;4.60;;;;;;;25.62;31.37;100124.84;4955685;29;20051;-51
2022/04/24 07:19:06;;;;;;;8.18;4.38;;;;;;;25.62;31.22;100124.84;4955497;29;20058;-50
2022/04/24 07:21:34;;;;;;;6.15;4.47;;;;;;;25.68;31.25;100128.28;4955403;29;20027;-47
2022/04/24 07:24:03;;;;;;;7.03;4.63;;;;;;;25.68;31.47;100123.91;4955538;29;20111;-51
2022/04/24 07:26:32;;;;;;;7.93;4.38;;;;;;;25.67;31.32;100130.06;4954840;29;20031;-48
2022/04/24 07:29:01;;;;;;;6.15;4.63;;;;;;;25.71;31.61;100129.16;4954640;28;20031;-51
2022/04/24 07:31:29;;;;;;;4.65;3.90;;;;;;;25.74;31.51;100129.09;4954711;29;20045;-48
2022/04/24 07:33:58;;;;;;;7.15;4.38;;;;;;;25.75;31.41;100132.63;4955268;29;20370;-50
2022/04/24 07:36:27;;;;;;;7.97;4.32;;;;;;;25.77;31.39;100131.72;4954569;29;20106;-48
2022/04/24 07:38:55;;;;;;;6.45;4.35;;;;;;;25.78;31.84;100132.59;4938456;29;20031;-50
2022/04/24 07:41:27;;;;;;;7.50;4.68;;;;;;;25.83;31.55;100132.56;4955281;29;20576;-52
2022/04/24 07:43:55;;;;;;;6.57;4.30;;;;;;;25.84;31.61;100135.16;4955056;29;20031;-47
2022/04/24 07:46:24;;;;;;;7.80;4.28;;;;;;;25.90;31.83;100137.75;4955253;29;20484;-47
2022/04/24 07:48:52;;;;;;;7.25;4.32;;;;;;;25.90;31.87;100132.50;4938823;29;20067;-46
2022/04/24 07:51:21;;;;;;;7.00;4.53;;;;;;;25.90;32.03;100134.25;4937655;29;20090;-49
2022/04/24 07:53:49;;;;;;;7.20;4.55;;;;;;;25.96;31.73;100141.22;4955003;29;20039;-46
2022/04/24 07:56:18;;;;;;;7.00;4.80;;;;;;;25.97;32.10;100143.81;4954890;29;20023;-51
2022/04/24 07:58:46;;;;;;;8.80;4.55;;;;;;;26.03;31.80;100140.28;4954625;29;20035;-53
2022/04/24 08:01:16;;;;;;;7.55;4.78;;;;;;;26.03;31.83;100142.91;4954912;29;20385;-44
2022/04/24 08:03:45;;;;;;;8.75;4.72;;;;;;;26.08;31.86;100139.34;4955134;29;20035;-48
2022/04/24 08:06:12;;;;;;;8.23;4.55;;;;;;;26.09;31.88;100138.44;4954898;29;20393;-48
2022/04/24 08:08:40;;;;;;;6.03;4.30;;;;;;;26.11;31.74;100146.38;4955008;29;20015;-54
2022/04/24 08:11:09;;;;;;;6.75;4.07;;;;;;;26.13;31.74;100149.88;4954490;29;20043;-49
2022/04/24 08:13:36;;;;;;;8.73;4.57;;;;;;;26.16;31.60;100149.81;4937297;29;20089;-48
2022/04/24 08:16:05;;;;;;;6.63;4.03;;;;;;;26.17;31.70;100148.94;4954958;29;20035;-51
2022/04/24 08:18:34;;;;;;;7.85;3.92;;;;;;;26.19;31.92;100154.19;4954981;29;20091;-49
2022/04/24 08:21:02;;;;;;;6.57;4.32;;;;;;;26.20;31.63;100151.53;4955101;29;20105;-47
2022/04/24 08:23:31;;;;;;;7.68;4.47;;;;;;;26.21;32.02;100155.06;4954890;29;20069;-46
2022/04/24 08:25:59;;;;;;;9.73;4.50;;;;;;;26.24;31.91;100155.00;4954511;29;20023;-47
2022/04/24 08:28:28;;;;;;;5.88;4.65;;;;;;;26.10;31.72;100141.97;4954647;29;20027;-49
2022/04/24 08:30:57;;;;;;;5.20;3.63;;;;;;;26.31;31.82;100164.59;4954397;29;20540;-51
2022/04/24 08:33:26;;;;;;;9.05;4.47;;;;;;;26.33;31.83;100165.44;4954686;29;20103;-47
2022/04/24 08:35:54;;;;;;;8.40;4.50;;;;;;;26.29;31.80;100160.25;4954233;29;20032;-51
2022/04/24 08:38:23;;;;;;;5.78;4.38;;;;;;;26.35;31.67;100170.69;4954617;29;20062;-52
2022/04/24 08:40:52;;;;;;;6.85;4.30;;;;;;;26.32;31.99;100178.59;4955369;28;20466;-51
2022/04/24 08:43:25;;;;;;;9.07;5.00;;;;;;;26.36;31.89;100185.56;4941326;29;20504;-47
2022/04/24 08:45:53;;;;;;;6.82;4.13;;;;;;;26.41;31.63;100182.88;4958299;29;20023;-50
2022/04/24 08:48:22;;;;;;;5.95;4.25;;;;;;;26.38;31.92;100187.31;4941527;29;20023;-51
2022/04/24 08:50:51;;;;;;;7.75;3.75;;;;;;;26.41;31.86;100190.78;4958012;29;20053;-50
2022/04/24 08:53:21;;;;;;;7.20;4.38;;;;;;;26.42;31.58;100187.25;4940904;29;20038;-53
2022/04/24 08:55:50;;;;;;;7.22;3.67;;;;;;;26.45;31.80;100188.13;4940911;29;20046;-50
2022/04/24 08:58:18;;;;;;;7.32;4.25;;;;;;;26.47;31.72;100196.88;4957885;29;20042;-50
2022/04/24 09:00:47;;;;;;;5.60;3.80;;;;;;;26.48;31.49;100193.34;4957624;29;20166;-53
2022/04/24 09:03:15;;;;;;;6.80;4.40;;;;;;;26.48;31.80;100189.84;4957909;29;20035;-53
2022/04/24 09:05:44;;;;;;;5.53;3.92;;;;;;;26.50;31.71;100193.34;4957909;29;20071;-53
2022/04/24 09:08:14;;;;;;;8.30;4.13;;;;;;;26.52;31.71;100197.69;4957794;29;20039;-53
2022/04/24 09:10:54;;;;;;;5.65;4.32;;;;;;;26.53;31.54;100201.22;4940380;29;20034;-49
2022/04/24 09:14:24;;;;;;;6.43;4.22;;;;;;;26.56;31.58;100209.03;4957543;29;20042;-50
2022/04/24 09:16:46;;;;;;;7.32;4.70;;;;;;;26.60;31.50;100209.91;4934070;29;20043;-52
2022/04/24 09:19:25;;;;;;;6.97;3.75;;;;;;;26.62;31.69;100222.16;4957681;29;20160;-51
2022/04/24 09:21:54;;;;;;;6.78;4.00;;;;;;;26.58;31.30;100214.31;4957161;29;20477;-51
2022/04/24 09:24:23;;;;;;;5.65;3.70;;;;;;;26.64;31.69;100220.38;4957486;29;20035;-49
2022/04/24 09:26:53;;;;;;;6.93;4.53;;;;;;;26.65;31.72;100223.88;4957241;29;20058;-48
2022/04/24 09:29:22;;;;;;;7.97;4.80;;;;;;;26.66;31.61;100222.97;4957500;29;20485;-51
2022/04/24 09:31:52;;;;;;;7.65;4.03;;;;;;;26.66;31.54;100228.25;4957108;29;20520;-52
2022/04/24 09:34:22;;;;;;;5.55;4.05;;;;;;;26.71;31.57;100229.06;4940242;29;20082;-51
2022/04/24 09:37:10;;;;;;;5.75;4.07;;;;;;;26.73;31.42;100242.19;4957293;28;20051;-50
2022/04/24 09:39:40;;;;;;;5.05;4.00;;;;;;;26.75;31.50;100243.94;4957207;29;20560;-51
2022/04/24 09:42:14;;;;;;;6.18;4.28;;;;;;;26.74;31.49;100241.31;4956738;29;20441;-49
2022/04/24 09:44:53;;;;;;;5.97;4.15;;;;;;;26.76;31.62;100250.97;4956903;29;20023;-53
2022/04/24 09:47:27;;;;;;;6.97;4.13;;;;;;;26.76;31.41;100247.44;4941509;29;20039;-53
2022/04/24 09:49:55;;;;;;;7.55;4.22;;;;;;;26.79;31.51;100250.97;4956891;29;20393;-47
2022/04/24 09:52:25;;;;;;;8.02;4.60;;;;;;;26.82;31.67;100250.06;4956030;28;20054;-46
2022/04/24 09:54:55;;;;;;;8.32;4.63;;;;;;;26.82;31.24;100257.94;4957104;29;20031;-49
2022/04/24 09:57:25;;;;;;;7.38;4.43;;;;;;;26.76;31.51;100242.19;4957301;29;20031;-47
2022/04/24 09:59:54;;;;;;;6.25;3.78;;;;;;;26.83;31.38;100251.78;4957017;29;20031;-51
2022/04/24 10:02:23;;;;;;;9.10;5.25;;;;;;;26.83;31.35;100257.91;4956556;29;20027;-52
2022/04/24 10:04:53;;;;;;;7.85;3.83;;;;;;;26.89;31.50;100256.13;4956924;29;20034;-50
2022/04/24 10:07:21;;;;;;;8.25;4.20;;;;;;;26.92;31.64;100256.94;4956536;29;20557;-48
2022/04/24 10:09:50;;;;;;;8.05;4.18;;;;;;;26.94;31.32;100259.59;4939234;29;20039;-51
2022/04/24 10:12:20;;;;;;;6.75;4.38;;;;;;;26.94;31.60;100263.06;4956441;29;20027;-45
2022/04/24 10:15:12;;;;;;;9.23;4.95;;;;;;;26.97;31.39;100262.19;4939495;29;20031;-47
2022/04/24 10:17:58;;;;;;;8.50;4.38;;;;;;;26.99;31.39;100261.28;4956505;29;20041;-53
2022/04/24 10:20:28;;;;;;;9.27;4.22;;;;;;;27.03;31.40;100258.63;4956379;29;20041;-48
2022/04/24 10:22:57;;;;;;;8.82;4.50;;;;;;;27.03;31.33;100264.72;4956672;29;20047;-47
2022/04/24 10:25:45;;;;;;;8.30;4.38;;;;;;;27.07;31.46;100265.56;4939409;29;20097;-49
2022/04/24 10:28:19;;;;;;;4.85;3.92;;;;;;;27.07;31.41;100261.19;4956183;29;20027;-53
2022/04/24 10:31:06;;;;;;;6.80;4.30;;;;;;;27.13;31.55;100260.25;4956197;29;20384;-52
2022/04/24 10:33:36;;;;;;;6.97;4.30;;;;;;;27.14;31.13;100267.25;4956170;29;20027;-53
2022/04/24 10:36:14;;;;;;;8.18;4.32;;;;;;;27.16;31.54;100276.00;4939224;29;20438;-48
2022/04/24 10:38:53;;;;;;;6.50;4.25;;;;;;;27.15;31.51;100269.00;4956072;29;20503;-46
2022/04/24 10:41:23;;;;;;;6.63;4.28;;;;;;;27.20;31.20;100267.19;4955004;29;20045;-50
2022/04/24 10:43:58;;;;;;;6.18;3.88;;;;;;;27.25;31.42;100265.34;4955916;29;20524;-52
2022/04/24 10:46:29;;;;;;;8.13;4.25;;;;;;;27.26;31.58;100271.50;4956149;29;20095;-49
2022/04/24 10:49:17;;;;;;;7.35;4.13;;;;;;;27.32;31.54;100270.56;4955817;29;20031;-52
2022/04/24 10:52:00;;;;;;;6.03;3.78;;;;;;;27.30;31.20;100274.09;4955743;29;20031;-50
2022/04/24 10:54:39;;;;;;;5.05;3.53;;;;;;;27.34;31.39;100282.81;4956727;29;20038;-51
2022/04/24 10:57:19;;;;;;;6.68;3.92;;;;;;;27.35;31.25;100288.97;4955921;29;20066;-51
2022/04/24 10:59:51;;;;;;;6.25;3.75;;;;;;;27.37;31.19;100282.78;4955485;29;20118;-50
2022/04/24 11:02:28;;;;;;;7.47;4.30;;;;;;;27.39;31.39;100285.38;4955564;29;20528;-49
2022/04/24 11:05:08;;;;;;;6.53;3.78;;;;;;;27.41;31.25;100288.88;4955506;28;20035;-50
2022/04/24 11:07:36;;;;;;;6.40;4.05;;;;;;;27.44;30.77;100286.19;4938437;29;20031;-48
2022/04/24 11:10:09;;;;;;;6.70;4.18;;;;;;;27.44;31.20;100283.56;4955288;29;20079;-52
2022/04/24 11:12:38;;;;;;;6.57;4.00;;;;;;;27.46;31.11;100283.59;4955943;29;20031;-46
2022/04/24 11:15:10;;;;;;;7.32;4.15;;;;;;;27.51;31.13;100292.28;4955320;29;20075;-49
2022/04/24 11:17:39;;;;;;;5.00;3.78;;;;;;;27.47;30.95;100272.19;4955645;29;20465;-48
2022/04/24 11:20:10;;;;;;;7.07;4.25;;;;;;;27.52;30.84;100278.25;4955169;29;20446;-49
2022/04/24 11:22:58;;;;;;;7.13;4.00;;;;;;;27.58;30.87;100289.56;4955604;29;20087;-47
2022/04/24 11:25:28;;;;;;;5.97;4.43;;;;;;;27.56;30.97;100290.50;4955513;29;20087;-48
2022/04/24 11:27:58;;;;;;;5.05;3.65;;;;;;;27.50;30.96;100278.28;4955250;29;20026;-49
2022/04/24 11:30:34;;;;;;;6.40;3.72;;;;;;;27.52;31.05;100287.03;4955101;29;20425;-48
2022/04/24 11:33:05;;;;;;;7.55;4.13;;;;;;;27.59;30.94;100290.44;4955268;29;20058;-52
2022/04/24 11:35:36;;;;;;;7.38;4.07;;;;;;;27.58;30.89;100294.84;4954943;29;20427;-53
2022/04/24 11:38:06;;;;;;;6.93;3.90;;;;;;;27.59;30.93;100293.94;4937885;29;20047;-51
2022/04/24 11:40:38;;;;;;;8.63;4.00;;;;;;;27.62;30.87;100290.41;4955575;29;20507;-47
2022/04/24 11:43:07;;;;;;;7.03;4.38;;;;;;;27.60;31.00;100293.06;4955098;29;20042;-49